Time;durP1;ratioP1;P1;durP2;ratioP2;P2;SDS_P1;SDS_P2;PMS_P1;PMS_P2;Temp;Humidity;BMP_temperature;BMP_pressure;BME280_temperature;BME280_humidity;BME280_pressure;Samples;Min_cycle;Max_cycle;Signal;HPM_P1;HPM_P2
2023/07/29 00:00:52;;;;;;;0.52;0.43;;;17.40;99.90;;;;;;4976000;28;20578;-83
2023/07/29 00:03:21;;;;;;;1.20;0.60;;;17.30;99.90;;;;;;4991272;28;20125;-83
2023/07/29 00:05:50;;;;;;;0.98;0.57;;;17.40;99.90;;;;;;4989866;28;20038;-84
2023/07/29 00:08:16;;;;;;;0.98;0.63;;;17.40;99.90;;;;;;4976034;28;20073;-83
2023/07/29 00:10:45;;;;;;;2.00;0.70;;;17.40;99.90;;;;;;4992668;28;20046;-83
2023/07/29 00:13:11;;;;;;;1.48;0.88;;;17.40;99.90;;;;;;4974580;28;20085;-83
2023/07/29 00:15:36;;;;;;;1.30;0.57;;;17.40;99.90;;;;;;4957490;28;20046;-83
2023/07/29 00:18:02;;;;;;;1.08;0.70;;;17.40;99.90;;;;;;4960138;28;20050;-83
2023/07/29 00:20:28;;;;;;;1.60;1.00;;;17.40;99.90;;;;;;4976160;28;20136;-84
2023/07/29 00:22:54;;;;;;;1.80;0.88;;;17.30;99.90;;;;;;4975961;28;20038;-83
2023/07/29 00:25:21;;;;;;;1.73;0.70;;;17.40;99.90;;;;;;4975518;28;20046;-84
2023/07/29 00:27:47;;;;;;;1.10;0.60;;;17.30;99.90;;;;;;4957600;28;20046;-83
2023/07/29 00:30:13;;;;;;;1.20;0.80;;;17.30;99.90;;;;;;4975079;28;20096;-83
2023/07/29 00:32:38;;;;;;;1.65;0.63;;;17.30;99.90;;;;;;4959225;28;20101;-83
2023/07/29 00:35:05;;;;;;;1.00;0.60;;;17.30;99.90;;;;;;4975603;28;20040;-83
2023/07/29 00:37:31;;;;;;;1.13;0.80;;;17.30;99.90;;;;;;4956122;28;20089;-85
2023/07/29 00:39:58;;;;;;;1.67;0.80;;;17.20;99.90;;;;;;4990341;28;20526;-86
2023/07/29 00:42:24;;;;;;;1.63;0.85;;;17.20;99.90;;;;;;4976503;28;20045;-86
2023/07/29 00:44:50;;;;;;;2.70;0.65;;;17.20;99.90;;;;;;4976202;28;20089;-86
2023/07/29 00:47:16;;;;;;;1.35;0.65;;;17.20;99.90;;;;;;4958761;28;20070;-86
2023/07/29 00:49:45;;;;;;;0.70;0.60;;;17.10;99.90;;;;;;4959605;28;20125;-86
2023/07/29 00:52:12;;;;;;;1.63;0.95;;;17.10;99.90;;;;;;4958124;28;20636;-85
2023/07/29 00:54:42;;;;;;;1.40;0.60;;;17.10;99.90;;;;;;4979114;28;20100;-86
2023/07/29 00:57:14;;;;;;;1.42;0.57;;;17.10;99.90;;;;;;4978285;28;20046;-85
2023/07/29 00:59:41;;;;;;;2.38;1.27;;;17.00;99.90;;;;;;4979321;28;20677;-87
2023/07/29 01:02:07;;;;;;;4.22;0.63;;;17.00;99.90;;;;;;4966524;28;20108;-86
2023/07/29 01:04:33;;;;;;;2.13;0.80;;;17.00;99.90;;;;;;4978941;28;20248;-86
2023/07/29 01:07:05;;;;;;;1.23;0.70;;;17.00;99.90;;;;;;4975752;28;20043;-86
2023/07/29 01:09:44;;;;;;;3.05;0.40;;;16.90;99.90;;;;;;4978886;28;20526;-86
2023/07/29 01:12:14;;;;;;;1.05;0.40;;;16.90;99.90;;;;;;4971280;28;20050;-85
2023/07/29 01:14:55;;;;;;;1.85;0.95;;;16.90;99.90;;;;;;4994037;28;20354;-85
2023/07/29 01:17:32;;;;;;;1.40;0.55;;;16.90;99.90;;;;;;4986650;28;20045;-86
2023/07/29 01:20:07;;;;;;;1.50;0.57;;;16.90;99.90;;;;;;4993357;28;20465;-86
2023/07/29 01:22:35;;;;;;;1.60;0.70;;;16.80;99.90;;;;;;4978643;28;20034;-86
2023/07/29 01:25:01;;;;;;;1.30;0.82;;;16.70;99.90;;;;;;4995215;28;20022;-86
2023/07/29 01:27:26;;;;;;;0.90;0.40;;;16.80;99.90;;;;;;4994947;28;20038;-86
2023/07/29 01:29:53;;;;;;;1.48;0.80;;;16.70;99.90;;;;;;4993642;28;20122;-86
2023/07/29 01:32:45;;;;;;;1.65;0.50;;;16.70;99.90;;;;;;4993843;28;20035;-86
2023/07/29 01:35:38;;;;;;;1.52;0.93;;;16.60;99.90;;;;;;4993786;28;20053;-86
2023/07/29 01:38:18;;;;;;;1.10;0.43;;;16.60;99.90;;;;;;5007721;28;20046;-86
2023/07/29 01:40:45;;;;;;;1.17;0.70;;;16.60;99.90;;;;;;4980658;28;20043;-86
2023/07/29 01:43:13;;;;;;;1.52;0.65;;;16.50;99.90;;;;;;4979103;28;20034;-86
2023/07/29 01:45:39;;;;;;;1.25;0.60;;;16.50;99.90;;;;;;4976200;28;20117;-86
2023/07/29 01:48:06;;;;;;;0.70;0.47;;;16.50;99.90;;;;;;4994498;28;20402;-86
2023/07/29 01:50:33;;;;;;;0.95;0.50;;;16.50;99.90;;;;;;4994767;28;20038;-87
2023/07/29 01:52:59;;;;;;;1.02;0.70;;;16.50;99.90;;;;;;5007253;28;20104;-86
2023/07/29 01:55:24;;;;;;;0.73;0.50;;;16.50;99.90;;;;;;4976353;28;20046;-86
2023/07/29 01:57:51;;;;;;;1.00;0.60;;;16.50;99.90;;;;;;4993038;28;20141;-86
2023/07/29 02:00:19;;;;;;;1.42;0.65;;;16.50;99.90;;;;;;4977034;28;20514;-86
2023/07/29 02:02:45;;;;;;;1.58;0.80;;;16.50;99.90;;;;;;4994266;28;20048;-87
2023/07/29 02:05:10;;;;;;;1.00;0.40;;;16.60;99.90;;;;;;4975976;28;20490;-86
2023/07/29 02:07:36;;;;;;;1.05;0.45;;;16.60;99.90;;;;;;4994183;28;20042;-87
2023/07/29 02:10:02;;;;;;;0.60;0.30;;;16.60;99.90;;;;;;4996812;28;20042;-86
2023/07/29 02:12:28;;;;;;;1.23;0.60;;;16.60;99.90;;;;;;4977647;28;20144;-87
2023/07/29 02:14:54;;;;;;;1.75;0.63;;;16.70;99.90;;;;;;4975422;28;20034;-87
2023/07/29 02:17:19;;;;;;;0.85;0.40;;;16.70;99.90;;;;;;5009335;28;20077;-86
2023/07/29 02:19:45;;;;;;;1.02;0.30;;;16.70;99.90;;;;;;4993769;28;20045;-85
2023/07/29 02:22:14;;;;;;;0.57;0.30;;;16.70;99.90;;;;;;4994423;28;20043;-86
2023/07/29 02:24:40;;;;;;;0.28;0.20;;;16.70;99.90;;;;;;4993933;28;20034;-86
2023/07/29 02:27:06;;;;;;;0.75;0.40;;;16.70;99.90;;;;;;4977618;28;20125;-85
2023/07/29 02:29:32;;;;;;;0.28;0.28;;;16.70;99.90;;;;;;4978153;28;20508;-86
2023/07/29 02:31:59;;;;;;;0.28;0.20;;;16.70;99.90;;;;;;4973919;28;20592;-86
2023/07/29 02:34:25;;;;;;;0.38;0.32;;;16.70;99.90;;;;;;4977810;28;20097;-87
2023/07/29 02:36:51;;;;;;;1.40;0.47;;;16.70;99.90;;;;;;4977413;28;20543;-86
2023/07/29 02:39:17;;;;;;;0.08;0.08;;;16.70;99.90;;;;;;4994810;28;20121;-86
2023/07/29 02:41:46;;;;;;;0.98;0.40;;;16.70;99.90;;;;;;4977190;28;20109;-86
2023/07/29 02:44:19;;;;;;;0.77;0.30;;;16.70;99.90;;;;;;4993782;28;20050;-86
2023/07/29 02:46:45;;;;;;;0.88;0.25;;;16.70;99.90;;;;;;4988679;28;20074;-86
2023/07/29 02:49:11;;;;;;;0.85;0.30;;;16.70;99.90;;;;;;4977477;28;20030;-85
2023/07/29 02:51:36;;;;;;;0.30;0.17;;;16.70;99.90;;;;;;5010898;28;20042;-86
2023/07/29 02:54:02;;;;;;;2.60;0.65;;;16.80;99.90;;;;;;4993771;28;20038;-85
2023/07/29 02:56:28;;;;;;;0.93;0.40;;;16.80;99.90;;;;;;4977370;28;20518;-86
2023/07/29 02:58:54;;;;;;;0.85;0.30;;;16.70;99.90;;;;;;4993962;28;20038;-87
2023/07/29 03:01:20;;;;;;;0.88;0.45;;;16.70;99.90;;;;;;4993474;28;20094;-86
2023/07/29 03:03:45;;;;;;;0.70;0.40;;;16.80;99.90;;;;;;4978043;28;20038;-86
2023/07/29 03:06:14;;;;;;;0.82;0.30;;;16.70;99.90;;;;;;4993379;28;20049;-86
2023/07/29 03:08:39;;;;;;;1.13;0.57;;;16.70;99.90;;;;;;4976858;28;20049;-86
2023/07/29 03:11:11;;;;;;;0.75;0.30;;;16.70;99.90;;;;;;4992840;28;20046;-86
2023/07/29 03:13:37;;;;;;;0.47;0.30;;;16.70;99.90;;;;;;4969105;28;20046;-86
2023/07/29 03:16:11;;;;;;;0.47;0.22;;;16.70;99.90;;;;;;4958487;28;20057;-86
2023/07/29 03:18:37;;;;;;;0.70;0.40;;;16.70;99.90;;;;;;4977043;28;20414;-86
2023/07/29 03:21:03;;;;;;;1.40;0.47;;;16.60;99.90;;;;;;4976066;28;20038;-86
2023/07/29 03:23:30;;;;;;;0.98;0.30;;;16.60;99.90;;;;;;4976821;28;20117;-86
2023/07/29 03:25:58;;;;;;;0.93;0.30;;;16.60;99.90;;;;;;4975752;28;20042;-86
2023/07/29 03:28:29;;;;;;;0.63;0.30;;;16.50;99.90;;;;;;4975509;28;20383;-86
2023/07/29 03:30:55;;;;;;;0.35;0.22;;;16.50;99.90;;;;;;4974447;28;20100;-86
2023/07/29 03:33:22;;;;;;;0.57;0.20;;;16.50;99.90;;;;;;4959898;28;20104;-86
2023/07/29 03:35:47;;;;;;;1.35;0.40;;;16.40;99.90;;;;;;4960026;28;20057;-86
2023/07/29 03:38:13;;;;;;;0.50;0.30;;;16.40;99.90;;;;;;4958975;28;20487;-86
2023/07/29 03:40:40;;;;;;;0.55;0.20;;;16.30;99.90;;;;;;4958185;28;20046;-85
2023/07/29 03:43:06;;;;;;;0.43;0.20;;;16.30;99.90;;;;;;4958679;28;20042;-86
2023/07/29 03:45:32;;;;;;;0.80;0.47;;;16.30;99.90;;;;;;4975239;28;20044;-86
2023/07/29 03:47:58;;;;;;;1.98;0.32;;;16.20;99.90;;;;;;4958904;28;20046;-86
2023/07/29 03:50:25;;;;;;;0.55;0.20;;;16.20;99.90;;;;;;4976080;28;20053;-86
2023/07/29 03:52:50;;;;;;;0.38;0.20;;;16.20;99.90;;;;;;4959926;28;20042;-86
2023/07/29 03:55:16;;;;;;;0.98;0.30;;;16.20;99.90;;;;;;4976125;28;20049;-86
2023/07/29 03:57:43;;;;;;;1.05;0.38;;;16.10;99.90;;;;;;4959890;28;20050;-86
2023/07/29 04:00:10;;;;;;;1.27;0.45;;;16.10;99.90;;;;;;4975310;28;20129;-86
2023/07/29 04:02:38;;;;;;;1.05;0.32;;;16.10;99.90;;;;;;4975718;28;20082;-84
2023/07/29 04:05:08;;;;;;;1.40;0.30;;;16.00;99.90;;;;;;4958902;28;20486;-84
2023/07/29 04:07:37;;;;;;;0.40;0.20;;;16.10;99.90;;;;;;4975228;28;20597;-83
2023/07/29 04:10:04;;;;;;;0.93;0.40;;;16.00;99.90;;;;;;4975386;28;20046;-84
2023/07/29 04:12:30;;;;;;;0.50;0.30;;;16.10;99.90;;;;;;4985102;28;20050;-83
2023/07/29 04:14:56;;;;;;;0.17;0.10;;;16.00;99.90;;;;;;4991781;28;20042;-84
2023/07/29 04:17:22;;;;;;;0.43;0.20;;;16.10;99.90;;;;;;4991058;28;20034;-84
2023/07/29 04:19:47;;;;;;;0.40;0.20;;;16.10;99.90;;;;;;4991621;28;20038;-84
2023/07/29 04:22:15;;;;;;;0.40;0.20;;;16.10;99.90;;;;;;4970333;28;20045;-84
2023/07/29 04:24:41;;;;;;;0.57;0.20;;;16.10;99.90;;;;;;4995373;28;20122;-83
2023/07/29 04:27:07;;;;;;;0.93;0.45;;;16.10;99.90;;;;;;4976337;28;20077;-83
2023/07/29 04:29:32;;;;;;;0.40;0.20;;;16.10;99.90;;;;;;4962932;28;20042;-83
2023/07/29 04:31:58;;;;;;;0.90;0.60;;;16.10;99.90;;;;;;4995077;28;20046;-83
2023/07/29 04:34:24;;;;;;;0.50;0.20;;;16.20;99.90;;;;;;4996316;28;20023;-84
2023/07/29 04:36:50;;;;;;;0.43;0.17;;;16.20;99.90;;;;;;4979347;28;20047;-83
2023/07/29 04:39:15;;;;;;;0.88;0.10;;;16.20;99.90;;;;;;4994696;28;20100;-83
2023/07/29 04:41:41;;;;;;;0.50;0.32;;;16.20;99.90;;;;;;4994453;28;20390;-84
2023/07/29 04:44:07;;;;;;;0.98;0.32;;;16.20;99.90;;;;;;4995693;28;20058;-84
2023/07/29 04:46:33;;;;;;;0.30;0.10;;;16.30;99.90;;;;;;4978121;28;20043;-83
2023/07/29 04:48:59;;;;;;;0.20;0.10;;;16.30;99.90;;;;;;4978828;28;20421;-84
2023/07/29 04:51:25;;;;;;;1.00;0.43;;;16.30;99.90;;;;;;4979422;28;20046;-84
2023/07/29 04:53:50;;;;;;;0.28;0.10;;;16.30;99.90;;;;;;5011086;28;20060;-83
2023/07/29 04:56:16;;;;;;;0.95;0.30;;;16.30;99.90;;;;;;4978847;28;20093;-83
2023/07/29 04:58:45;;;;;;;0.43;0.17;;;16.30;99.90;;;;;;4979585;28;20097;-83
2023/07/29 05:01:11;;;;;;;0.15;0.08;;;16.30;99.90;;;;;;4995462;28;20130;-84
2023/07/29 05:03:37;;;;;;;0.25;0.08;;;16.30;99.90;;;;;;4983025;28;20051;-83
2023/07/29 05:06:02;;;;;;;0.60;0.30;;;16.30;99.90;;;;;;4997523;28;20522;-84
2023/07/29 05:08:28;;;;;;;0.22;0.15;;;16.30;99.90;;;;;;4988942;28;20042;-83
2023/07/29 05:10:55;;;;;;;0.50;0.30;;;16.30;99.90;;;;;;4996083;28;20042;-83
2023/07/29 05:13:21;;;;;;;0.60;0.30;;;16.40;99.90;;;;;;4979201;28;20044;-83
2023/07/29 05:15:48;;;;;;;0.57;0.47;;;16.40;99.90;;;;;;4978532;28;20111;-84
2023/07/29 05:18:17;;;;;;;3.28;0.50;;;16.40;99.90;;;;;;4964347;28;20050;-83
2023/07/29 05:20:43;;;;;;;0.85;0.45;;;16.40;99.90;;;;;;4983495;28;20066;-83
2023/07/29 05:23:09;;;;;;;4.97;2.75;;;16.50;99.90;;;;;;4979193;28;20038;-83
2023/07/29 05:25:35;;;;;;;6.95;3.25;;;16.50;99.90;;;;;;4974588;28;20071;-83
2023/07/29 05:28:01;;;;;;;0.73;0.40;;;16.50;99.90;;;;;;4987776;28;20384;-83
2023/07/29 05:30:30;;;;;;;0.40;0.10;;;16.60;99.90;;;;;;4979167;28;20055;-83
2023/07/29 05:32:57;;;;;;;0.73;0.30;;;16.60;99.90;;;;;;4963374;28;20056;-83
2023/07/29 05:35:23;;;;;;;0.45;0.25;;;16.70;99.90;;;;;;4981535;28;20786;-83
2023/07/29 05:37:49;;;;;;;0.65;0.35;;;16.70;99.90;;;;;;4972828;28;20072;-83
2023/07/29 05:40:15;;;;;;;0.22;0.10;;;16.70;99.90;;;;;;4956614;28;20126;-83
2023/07/29 05:42:47;;;;;;;0.40;0.20;;;16.70;99.90;;;;;;4962234;28;20767;-83
2023/07/29 05:45:13;;;;;;;0.20;0.10;;;16.70;99.90;;;;;;4962211;28;20121;-83
2023/07/29 05:47:39;;;;;;;1.77;0.22;;;16.80;99.90;;;;;;4978584;28;20113;-83
2023/07/29 05:50:05;;;;;;;0.30;0.20;;;16.80;99.90;;;;;;4950366;28;20406;-83
2023/07/29 05:52:34;;;;;;;0.32;0.28;;;16.80;99.90;;;;;;4979549;28;20104;-83
2023/07/29 05:55:00;;;;;;;0.22;0.13;;;16.90;99.90;;;;;;4978513;28;20454;-83
2023/07/29 05:57:26;;;;;;;0.93;0.30;;;17.00;99.90;;;;;;4962278;28;20040;-83
2023/07/29 05:59:52;;;;;;;0.40;0.20;;;17.00;99.90;;;;;;4978584;28;20487;-83
2023/07/29 06:02:18;;;;;;;0.52;0.30;;;17.10;99.90;;;;;;4978501;28;20045;-83
2023/07/29 06:04:43;;;;;;;0.75;0.35;;;17.10;99.90;;;;;;4978825;28;20508;-83
2023/07/29 06:07:09;;;;;;;0.35;0.15;;;17.20;99.90;;;;;;4960973;28;20038;-84
2023/07/29 06:09:35;;;;;;;0.63;0.20;;;17.20;99.90;;;;;;4979392;28;20451;-85
2023/07/29 06:12:01;;;;;;;0.47;0.20;;;17.30;99.90;;;;;;4966580;28;20433;-86
2023/07/29 06:14:27;;;;;;;0.77;0.20;;;17.30;99.90;;;;;;4977425;28;20037;-85
2023/07/29 06:16:52;;;;;;;0.50;0.22;;;17.30;99.90;;;;;;4982583;28;20979;-86
2023/07/29 06:19:20;;;;;;;0.32;0.30;;;17.30;99.90;;;;;;4995104;28;20108;-84
2023/07/29 06:21:46;;;;;;;1.40;0.68;;;17.40;99.90;;;;;;4992637;28;20038;-85
2023/07/29 06:24:11;;;;;;;13.13;8.63;;;17.50;99.90;;;;;;4977581;28;20053;-85
2023/07/29 06:26:37;;;;;;;1.58;1.08;;;17.60;99.90;;;;;;4976219;28;20093;-85
2023/07/29 06:29:03;;;;;;;2.92;1.25;;;17.80;99.90;;;;;;4977357;28;20042;-85
2023/07/29 06:31:29;;;;;;;1.05;0.50;;;17.90;99.90;;;;;;4976752;28;20046;-85
2023/07/29 06:33:55;;;;;;;0.73;0.57;;;18.00;99.90;;;;;;4977710;28;20042;-85
2023/07/29 06:36:21;;;;;;;0.52;0.45;;;18.10;99.90;;;;;;4977181;28;20135;-85
2023/07/29 06:38:47;;;;;;;0.25;0.15;;;18.10;99.90;;;;;;4982729;28;20090;-85
2023/07/29 06:41:13;;;;;;;1.50;0.30;;;18.20;99.90;;;;;;5005168;28;20046;-84
2023/07/29 06:43:38;;;;;;;0.45;0.20;;;18.20;99.90;;;;;;4987324;28;20093;-84
2023/07/29 06:46:04;;;;;;;0.73;0.22;;;18.30;99.90;;;;;;4985209;28;20111;-84
2023/07/29 06:48:30;;;;;;;2.38;0.45;;;18.30;99.90;;;;;;4981821;28;20101;-84
2023/07/29 06:51:00;;;;;;;0.65;0.22;;;18.30;99.90;;;;;;5002308;28;20042;-84
2023/07/29 06:53:26;;;;;;;1.20;0.50;;;18.40;99.90;;;;;;5003189;28;20078;-85
2023/07/29 06:55:52;;;;;;;0.52;0.30;;;18.60;99.90;;;;;;4988279;28;20096;-84
2023/07/29 06:58:18;;;;;;;1.17;0.40;;;18.60;99.90;;;;;;5002223;28;20030;-84
2023/07/29 07:00:44;;;;;;;2.28;0.30;;;18.70;99.90;;;;;;5000814;28;20045;-84
2023/07/29 07:03:09;;;;;;;0.70;0.32;;;18.70;99.90;;;;;;4983808;28;20415;-84
2023/07/29 07:05:35;;;;;;;0.47;0.22;;;18.80;99.90;;;;;;4998200;28;20125;-84
2023/07/29 07:08:01;;;;;;;0.45;0.20;;;18.90;99.90;;;;;;4984407;28;20414;-84
2023/07/29 07:10:27;;;;;;;0.60;0.38;;;19.00;99.90;;;;;;5001174;28;20046;-84
2023/07/29 07:12:52;;;;;;;1.17;0.25;;;19.00;99.90;;;;;;4982137;28;20050;-84
2023/07/29 07:15:18;;;;;;;1.63;0.40;;;19.10;99.90;;;;;;4998446;28;20046;-84
2023/07/29 07:17:44;;;;;;;0.55;0.22;;;19.10;99.90;;;;;;4999430;28;20046;-84
2023/07/29 07:20:10;;;;;;;1.42;1.02;;;19.10;99.90;;;;;;4993416;28;20050;-83
2023/07/29 07:22:36;;;;;;;1.45;0.93;;;19.10;99.90;;;;;;4992979;28;20042;-83
2023/07/29 07:25:02;;;;;;;0.93;0.30;;;19.10;99.90;;;;;;4990971;28;20089;-83
2023/07/29 07:27:28;;;;;;;0.90;0.30;;;19.20;99.90;;;;;;4992350;28;20053;-83
2023/07/29 07:29:53;;;;;;;1.30;0.73;;;19.30;99.90;;;;;;4982956;28;20038;-83
2023/07/29 07:32:19;;;;;;;0.75;0.40;;;19.30;99.90;;;;;;4991423;28;20042;-83
2023/07/29 07:34:45;;;;;;;0.30;0.10;;;19.30;99.90;;;;;;4989737;28;20482;-84
2023/07/29 07:37:11;;;;;;;0.63;0.20;;;19.40;99.90;;;;;;4991396;28;20210;-84
2023/07/29 07:39:36;;;;;;;0.32;0.15;;;19.50;99.90;;;;;;4979290;28;20038;-83
2023/07/29 07:42:02;;;;;;;0.57;0.22;;;19.50;99.90;;;;;;4981469;28;20035;-84
2023/07/29 07:44:28;;;;;;;0.38;0.30;;;19.60;99.90;;;;;;4983111;28;20023;-84
2023/07/29 07:46:54;;;;;;;0.30;0.20;;;19.70;99.90;;;;;;4981883;28;20042;-84
2023/07/29 07:49:19;;;;;;;0.88;0.15;;;19.70;99.90;;;;;;4983474;28;20046;-84
2023/07/29 07:51:45;;;;;;;0.90;0.38;;;19.70;99.90;;;;;;4999458;28;20045;-84
2023/07/29 07:54:11;;;;;;;45.35;27.48;;;19.80;99.90;;;;;;4999294;28;20077;-84
2023/07/29 07:56:37;;;;;;;3.00;1.88;;;19.80;99.90;;;;;;4999241;28;20129;-84
2023/07/29 07:59:02;;;;;;;18.98;8.52;;;19.90;99.90;;;;;;5000911;28;20046;-83
2023/07/29 08:01:37;;;;;;;1.25;0.60;;;20.00;99.90;;;;;;5000724;28;20042;-84
2023/07/29 08:04:03;;;;;;;1.23;0.47;;;20.10;99.90;;;;;;5001263;28;20077;-84
2023/07/29 08:06:30;;;;;;;0.20;0.20;;;20.20;99.90;;;;;;5000462;28;20042;-84
2023/07/29 08:08:56;;;;;;;0.80;0.40;;;20.30;99.90;;;;;;4983831;28;20640;-84
2023/07/29 08:11:22;;;;;;;0.70;0.20;;;20.30;99.90;;;;;;4979181;28;20054;-83
2023/07/29 08:13:48;;;;;;;0.20;0.20;;;20.30;99.90;;;;;;4983807;28;20040;-84
2023/07/29 08:16:14;;;;;;;0.40;0.13;;;20.40;99.90;;;;;;4982832;28;20050;-84
2023/07/29 08:18:40;;;;;;;0.65;0.30;;;20.40;99.90;;;;;;4984996;28;20042;-84
2023/07/29 08:21:06;;;;;;;0.60;0.40;;;20.40;99.90;;;;;;4998707;28;20054;-84
2023/07/29 08:23:33;;;;;;;0.77;0.40;;;20.60;99.90;;;;;;4983994;28;20105;-84
2023/07/29 08:26:01;;;;;;;0.22;0.10;;;20.80;99.90;;;;;;4996606;28;20042;-84
2023/07/29 08:28:31;;;;;;;0.88;0.22;;;20.90;99.90;;;;;;4981598;28;20035;-84
2023/07/29 08:30:57;;;;;;;0.50;0.30;;;21.00;99.90;;;;;;4979146;28;20125;-84
2023/07/29 08:33:23;;;;;;;1.63;0.40;;;21.20;99.90;;;;;;4997910;28;20081;-84
2023/07/29 08:35:49;;;;;;;0.47;0.20;;;21.40;99.90;;;;;;4997757;28;20121;-84
2023/07/29 08:38:14;;;;;;;0.55;0.38;;;21.60;99.90;;;;;;4997549;28;20076;-84
2023/07/29 08:41:18;;;;;;;0.22;0.10;;;21.60;99.90;;;;;;4999272;28;20046;-84
2023/07/29 08:43:56;;;;;;;8.68;4.90;;;21.50;99.90;;;;;;5012736;28;20057;-84
2023/07/29 08:46:22;;;;;;;5.57;3.25;;;21.40;99.90;;;;;;5015629;28;20048;-84
2023/07/29 08:48:49;;;;;;;1.13;0.60;;;21.30;99.90;;;;;;5000706;28;20514;-84
2023/07/29 08:51:17;;;;;;;0.30;0.30;;;21.40;99.90;;;;;;4999261;28;20038;-84
2023/07/29 08:53:46;;;;;;;0.40;0.22;;;21.50;99.90;;;;;;4982166;28;20093;-84
2023/07/29 08:56:12;;;;;;;0.45;0.22;;;21.70;99.90;;;;;;4989894;28;20722;-84
2023/07/29 08:58:39;;;;;;;0.32;0.10;;;21.70;99.90;;;;;;4981047;28;20102;-84
2023/07/29 09:01:06;;;;;;;0.68;0.20;;;21.80;99.90;;;;;;4980469;28;20038;-84
2023/07/29 09:03:32;;;;;;;0.45;0.20;;;21.90;99.90;;;;;;4998182;28;20081;-84
2023/07/29 09:05:59;;;;;;;0.20;0.10;;;22.40;99.90;;;;;;4982530;28;20038;-84
2023/07/29 09:08:28;;;;;;;0.20;0.10;;;22.80;99.90;;;;;;4999434;28;20061;-84
2023/07/29 09:10:55;;;;;;;0.10;0.10;;;23.10;99.90;;;;;;4999266;28;20085;-84
2023/07/29 09:13:21;;;;;;;5.18;0.28;;;23.00;99.90;;;;;;4966484;28;20089;-84
2023/07/29 09:15:47;;;;;;;12.70;5.53;;;23.20;99.90;;;;;;4985750;28;20046;-84
2023/07/29 09:18:19;;;;;;;0.40;0.30;;;23.20;99.90;;;;;;4970766;28;20043;-84
2023/07/29 09:20:50;;;;;;;0.52;0.40;;;23.00;99.90;;;;;;4986439;28;20053;-84
2023/07/29 09:23:16;;;;;;;0.00;0.00;;;22.80;99.90;;;;;;4967402;28;20042;-84
2023/07/29 09:25:48;;;;;;;0.28;0.20;;;22.50;99.90;;;;;;4972350;28;20129;-84
2023/07/29 09:28:16;;;;;;;1.02;0.40;;;22.40;99.90;;;;;;4987972;28;20042;-84
2023/07/29 09:30:45;;;;;;;1.55;0.10;;;22.30;99.90;;;;;;4988607;28;20053;-84
2023/07/29 09:33:11;;;;;;;0.00;0.00;;;22.30;99.90;;;;;;4971100;28;20062;-84
2023/07/29 09:35:38;;;;;;;0.70;0.10;;;22.30;99.90;;;;;;4988553;28;20057;-83
2023/07/29 09:38:07;;;;;;;0.20;0.10;;;22.30;99.90;;;;;;4967241;28;20042;-83
2023/07/29 09:40:39;;;;;;;0.10;0.00;;;22.50;99.90;;;;;;4969656;28;20046;-84
2023/07/29 09:43:06;;;;;;;0.30;0.10;;;23.00;99.90;;;;;;4986425;28;20042;-84
2023/07/29 09:45:34;;;;;;;27.13;14.20;;;23.30;99.90;;;;;;4987022;28;20046;-84
2023/07/29 09:48:00;;;;;;;0.30;0.25;;;23.70;99.90;;;;;;4986772;28;20054;-84
2023/07/29 09:50:26;;;;;;;0.98;0.32;;;23.80;99.90;;;;;;4970311;28;20038;-84
2023/07/29 09:52:54;;;;;;;0.20;0.10;;;23.70;99.90;;;;;;4985815;28;20050;-84
2023/07/29 09:55:23;;;;;;;0.13;0.13;;;23.70;99.90;;;;;;4970524;28;20045;-84
2023/07/29 09:57:53;;;;;;;0.10;0.10;;;23.90;99.90;;;;;;4968942;28;20289;-83
2023/07/29 10:00:20;;;;;;;0.00;0.00;;;23.90;99.90;;;;;;4986656;28;20046;-83
2023/07/29 10:02:46;;;;;;;1.15;0.30;;;23.80;99.90;;;;;;4967712;28;20088;-84
2023/07/29 10:05:11;;;;;;;0.10;0.00;;;23.70;99.90;;;;;;4971343;28;20078;-84
2023/07/29 10:07:39;;;;;;;0.10;0.00;;;23.70;99.90;;;;;;4968336;28;20046;-84
2023/07/29 10:10:06;;;;;;;0.28;0.10;;;23.60;99.90;;;;;;4985703;28;20057;-84
2023/07/29 10:12:34;;;;;;;0.00;0.00;;;23.50;99.90;;;;;;4993034;28;20462;-84
2023/07/29 10:15:05;;;;;;;0.32;0.20;;;23.50;99.90;;;;;;4984086;28;20050;-84
2023/07/29 10:17:34;;;;;;;0.50;0.30;;;23.80;99.90;;;;;;4982564;28;20129;-84
2023/07/29 10:20:00;;;;;;;18.77;8.70;;;24.20;99.90;;;;;;4992239;28;20054;-84
2023/07/29 10:22:39;;;;;;;0.95;0.47;;;24.30;99.90;;;;;;4998444;28;20053;-84
2023/07/29 10:25:15;;;;;;;0.28;0.13;;;24.40;99.90;;;;;;4996718;28;20247;-84
2023/07/29 10:27:48;;;;;;;0.73;0.10;;;24.60;99.90;;;;;;4983633;28;20513;-83
2023/07/29 10:30:14;;;;;;;0.52;0.17;;;24.60;99.90;;;;;;4982203;28;20088;-84
2023/07/29 10:32:46;;;;;;;0.00;0.00;;;24.40;99.90;;;;;;5000378;28;20482;-84
2023/07/29 10:35:21;;;;;;;0.10;0.10;;;24.20;99.90;;;;;;4983547;28;20070;-84
2023/07/29 10:37:50;;;;;;;0.28;0.00;;;23.90;99.90;;;;;;4998376;28;20035;-84
2023/07/29 10:40:17;;;;;;;1.17;0.10;;;23.90;99.90;;;;;;4982326;28;20482;-84
2023/07/29 10:43:03;;;;;;;0.00;0.00;;;23.90;99.90;;;;;;4998443;28;20495;-84
2023/07/29 10:45:37;;;;;;;0.25;0.10;;;23.80;99.90;;;;;;5001494;28;20030;-83
2023/07/29 10:48:10;;;;;;;0.30;0.10;;;23.70;99.90;;;;;;5000750;28;20026;-83
2023/07/29 10:50:36;;;;;;;0.10;0.00;;;23.70;99.90;;;;;;4981635;28;20050;-83
2023/07/29 10:53:02;;;;;;;0.17;0.10;;;23.50;99.90;;;;;;5017052;28;20090;-85
2023/07/29 10:55:33;;;;;;;0.10;0.03;;;23.40;99.90;;;;;;4997189;28;20123;-90
2023/07/29 10:58:09;;;;;;;0.40;0.10;;;23.00;99.90;;;;;;4979914;28;20046;-87
2023/07/29 11:00:35;;;;;;;0.45;0.10;;;22.50;99.90;;;;;;4994850;28;20514;-86
2023/07/29 11:03:08;;;;;;;1.95;0.20;;;22.10;99.90;;;;;;4980835;28;20061;-85
2023/07/29 11:05:52;;;;;;;0.22;0.10;;;21.70;99.90;;;;;;4997164;28;20034;-84
2023/07/29 11:08:29;;;;;;;0.90;0.10;;;21.40;99.90;;;;;;4976998;28;20402;-85
2023/07/29 11:11:12;;;;;;;0.17;0.10;;;21.20;99.90;;;;;;4978322;28;20518;-87
2023/07/29 11:13:41;;;;;;;1.13;0.10;;;21.00;99.90;;;;;;4997029;28;20128;-88
2023/07/29 11:16:06;;;;;;;0.10;0.03;;;21.00;99.90;;;;;;4998585;28;20073;-86
2023/07/29 11:18:34;;;;;;;0.40;0.10;;;20.90;99.90;;;;;;4998456;28;20089;-86
2023/07/29 11:21:01;;;;;;;0.10;0.03;;;20.90;99.90;;;;;;4982101;28;20038;-86
2023/07/29 11:23:35;;;;;;;0.40;0.20;;;21.10;99.90;;;;;;4998068;28;20494;-86
2023/07/29 11:26:03;;;;;;;0.15;0.00;;;21.20;99.90;;;;;;4982085;28;20058;-86
2023/07/29 11:28:30;;;;;;;0.22;0.13;;;21.40;99.90;;;;;;4998252;28;20050;-85
2023/07/29 11:30:56;;;;;;;0.10;0.00;;;21.60;99.90;;;;;;4984463;28;20050;-86
2023/07/29 11:33:25;;;;;;;0.35;0.10;;;21.90;99.90;;;;;;4998691;28;20038;-85
2023/07/29 11:35:51;;;;;;;0.00;0.00;;;22.10;99.90;;;;;;4983435;28;20050;-85
2023/07/29 11:38:19;;;;;;;0.10;0.00;;;22.10;99.90;;;;;;4996202;28;20038;-85
2023/07/29 11:40:59;;;;;;;0.00;0.00;;;22.30;99.90;;;;;;4981439;28;20563;-85
2023/07/29 11:43:25;;;;;;;1.58;1.25;;;22.40;99.90;;;;;;4997127;28;20038;-84
2023/07/29 11:45:52;;;;;;;4.55;2.20;;;22.60;99.90;;;;;;5006066;28;20049;-84
2023/07/29 11:48:18;;;;;;;0.40;0.28;;;22.70;99.90;;;;;;4996569;28;20041;-84
2023/07/29 11:50:45;;;;;;;1.00;0.30;;;22.80;99.90;;;;;;4998416;28;20425;-85
2023/07/29 11:53:12;;;;;;;0.57;0.32;;;22.70;99.90;;;;;;4981944;28;20038;-83
2023/07/29 11:55:38;;;;;;;0.30;0.20;;;22.60;99.90;;;;;;4987950;28;20038;-83
2023/07/29 11:58:04;;;;;;;0.30;0.20;;;22.70;99.90;;;;;;4981735;28;20049;-84
2023/07/29 12:00:31;;;;;;;0.32;0.10;;;23.30;99.90;;;;;;4991153;28;20092;-84
2023/07/29 12:03:00;;;;;;;0.20;0.10;;;23.70;99.90;;;;;;4981707;28;20037;-84
2023/07/29 12:05:27;;;;;;;2.13;0.20;;;24.30;99.90;;;;;;4978452;28;20042;-84
2023/07/29 12:07:52;;;;;;;1.70;1.27;;;24.80;99.90;;;;;;4997358;28;20057;-84
2023/07/29 12:10:19;;;;;;;24.77;13.13;;;25.00;99.90;;;;;;4998143;28;20374;-83
2023/07/29 12:12:49;;;;;;;1.00;0.60;;;24.90;99.90;;;;;;4993929;28;20502;-84
2023/07/29 12:15:29;;;;;;;2.03;0.63;;;24.70;99.90;;;;;;4991481;28;20034;-84
2023/07/29 12:17:56;;;;;;;0.20;0.20;;;24.70;99.90;;;;;;4993802;28;20050;-83
2023/07/29 12:20:22;;;;;;;0.30;0.10;;;24.70;99.90;;;;;;4994796;28;20411;-82
2023/07/29 12:23:01;;;;;;;0.88;0.17;;;24.70;99.90;;;;;;4995180;28;20038;-83
2023/07/29 12:25:27;;;;;;;0.13;0.10;;;25.00;99.90;;;;;;4977192;28;20079;-83
2023/07/29 12:27:53;;;;;;;0.75;0.10;;;25.50;99.90;;;;;;4990561;28;20050;-84
2023/07/29 12:30:22;;;;;;;0.45;0.10;;;25.70;99.90;;;;;;4994991;28;20043;-83
2023/07/29 12:32:48;;;;;;;0.17;0.05;;;25.50;99.90;;;;;;4977712;28;20558;-84
2023/07/29 12:35:14;;;;;;;0.25;0.10;;;24.90;99.90;;;;;;4993287;28;20065;-83
2023/07/29 12:37:42;;;;;;;0.20;0.10;;;24.60;99.90;;;;;;4993962;28;20046;-83
2023/07/29 12:40:22;;;;;;;0.15;0.10;;;24.60;99.90;;;;;;4994131;28;20085;-83
2023/07/29 12:42:49;;;;;;;0.13;0.10;;;25.00;99.90;;;;;;4994134;28;20042;-84
2023/07/29 12:45:16;;;;;;;0.20;0.10;;;25.40;99.90;;;;;;4976558;28;20042;-83
2023/07/29 12:47:45;;;;;;;1.95;0.20;;;25.60;99.90;;;;;;4977136;28;20077;-83